This is the latest recevied weather packets stored in our database for station/object KB5DPX. If no packets are shown the sender has not sent any weather packets the latest 1 day(s).
| Time | Temp. | Humidity | Pressure | Rain* | Wind** | Luminosity | Snow |
|---|---|---|---|---|---|---|---|
| 1778023052 | 7.78° C | 61% | 1008 hPa | 0 mm | - | 102 W/m² | - |
| 1778022765 | 8.89° C | 58% | 1008 hPa | 0 mm | - | 88 W/m² | - |
| 1778022450 | 10.56° C | 48% | 1007.9 hPa | 0 mm | - | 84 W/m² | - |
| 1778022168 | 10.56° C | 46% | 1007.7 hPa | 0 mm | - | 139 W/m² | - |
| 1778020044 | 10.56° C | 43% | 1007.7 hPa | 0 mm | - | 378 W/m² | - |
| 1778019757 | 10.56° C | 45% | 1007.7 hPa | 0 mm | - | 385 W/m² | - |
| 1778019162 | 10.56° C | 45% | 1007.6 hPa | 0 mm | - | 431 W/m² | - |
| 1778018546 | 10.56° C | 44% | 1007.6 hPa | 0 mm | - | 455 W/m² | - |
| 1778018252 | 10.56° C | 44% | 1007.7 hPa | 0 mm | - | 464 W/m² | - |
| 1778017966 | 10.56° C | 44% | 1007.6 hPa | 0 mm | - | 480 W/m² | - |
| 1778017652 | 10.56° C | 43% | 1007.6 hPa | 0 mm | - | 499 W/m² | - |
| 1778017365 | 10.56° C | 45% | 1007.7 hPa | 0 mm | - | 515 W/m² | - |
| 1778017065 | 10.56° C | 47% | 1007.5 hPa | 0 mm | - | 529 W/m² | - |
| 1778015868 | 11.11° C | 45% | 1007.5 hPa | 0 mm | - | 598 W/m² | - |
| 1778012546 | 10.56° C | 48% | 1007.3 hPa | 0 mm | - | 728 W/m² | - |
| 1778011046 | 10.56° C | 47% | 1007.3 hPa | 0 mm | - | 766 W/m² | - |
| 1778009842 | 10.56° C | 49% | 1007.3 hPa | 0 mm | - | 860 W/m² | - |
| 1778008960 | 10° C | 45% | 1007.3 hPa | 0 mm | - | 891 W/m² | - |
| 1778007744 | 10° C | 53% | 1007.3 hPa | 0 mm | - | 921 W/m² | - |
| 1778007467 | 9.44° C | 53% | 1007.2 hPa | 0 mm | - | 902 W/m² | - |
| 1778006565 | 9.44° C | 54% | 1007 hPa | 0 mm | - | 918 W/m² | - |
| 1778006250 | 9.44° C | 55% | 1007 hPa | 0 mm | - | 926 W/m² | - |
| 1778004753 | 8.33° C | 61% | 1006.9 hPa | 0 mm | - | 944 W/m² | - |
| 1778003562 | 7.78° C | 64% | 1006.8 hPa | 0 mm | - | 976 W/m² | - |
| 1778002362 | 7.78° C | 65% | 1006.6 hPa | 0 mm | - | 969 W/m² | - |
* Rain latest hour (hover to see other rain measurements)
** Current wind speed in m/s (hover to see current wind gust speed)